sensor_id;sensor_type;location;lat;lon;timestamp;pressure;altitude;pressure_sealevel;temperature;humidity
71768;BME280;59604;52.138;5.446;2022-08-01T00:00:04;101803.41;;;19.26;84.05
71768;BME280;59604;52.138;5.446;2022-08-01T00:02:36;101808.75;;;19.26;84.10
71768;BME280;59604;52.138;5.446;2022-08-01T00:05:05;101799.69;;;19.27;84.18
71768;BME280;59604;52.138;5.446;2022-08-01T00:07:36;101809.56;;;19.26;83.60
71768;BME280;59604;52.138;5.446;2022-08-01T00:10:07;101803.03;;;19.22;84.18
71768;BME280;59604;52.138;5.446;2022-08-01T00:12:34;101799.50;;;19.22;84.43
71768;BME280;59604;52.138;5.446;2022-08-01T00:15:01;101803.03;;;19.22;84.12
71768;BME280;59604;52.138;5.446;2022-08-01T00:17:27;101804.03;;;19.21;84.64
71768;BME280;59604;52.138;5.446;2022-08-01T00:19:54;101805.09;;;19.20;84.64
71768;BME280;59604;52.138;5.446;2022-08-01T00:22:20;101802.03;;;19.17;84.90
71768;BME280;59604;52.138;5.446;2022-08-01T00:24:47;101810.28;;;19.15;84.75
71768;BME280;59604;52.138;5.446;2022-08-01T00:27:14;101807.00;;;19.13;84.63
71768;BME280;59604;52.138;5.446;2022-08-01T00:29:41;101802.72;;;19.12;85.31
71768;BME280;59604;52.138;5.446;2022-08-01T00:32:30;101815.88;;;19.07;85.11
71768;BME280;59604;52.138;5.446;2022-08-01T00:34:57;101805.44;;;19.05;85.74
71768;BME280;59604;52.138;5.446;2022-08-01T00:37:24;101809.16;;;19.04;85.57
71768;BME280;59604;52.138;5.446;2022-08-01T00:39:50;101801.97;;;19.05;85.78
71768;BME280;59604;52.138;5.446;2022-08-01T00:42:17;101813.69;;;19.04;85.41
71768;BME280;59604;52.138;5.446;2022-08-01T00:44:43;101806.91;;;19.01;84.71
71768;BME280;59604;52.138;5.446;2022-08-01T00:47:10;101811.22;;;19.02;84.66
71768;BME280;59604;52.138;5.446;2022-08-01T00:49:36;101822.13;;;19.01;85.48
71768;BME280;59604;52.138;5.446;2022-08-01T00:52:04;101801.19;;;18.98;85.00
71768;BME280;59604;52.138;5.446;2022-08-01T00:54:32;101798.53;;;18.98;85.76
71768;BME280;59604;52.138;5.446;2022-08-01T00:56:59;101812.13;;;18.96;86.51
71768;BME280;59604;52.138;5.446;2022-08-01T00:59:26;101817.66;;;18.95;86.10
71768;BME280;59604;52.138;5.446;2022-08-01T01:01:53;101819.75;;;18.93;86.18
71768;BME280;59604;52.138;5.446;2022-08-01T01:04:20;101819.50;;;18.94;86.75
71768;BME280;59604;52.138;5.446;2022-08-01T01:17:39;101818.69;;;18.94;86.58
71768;BME280;59604;52.138;5.446;2022-08-01T01:20:17;101815.00;;;18.95;86.13
71768;BME280;59604;52.138;5.446;2022-08-01T01:25:40;101809.50;;;18.90;86.68
71768;BME280;59604;52.138;5.446;2022-08-01T01:28:25;101818.53;;;18.89;86.86
71768;BME280;59604;52.138;5.446;2022-08-01T01:30:56;101810.13;;;18.85;86.21
71768;BME280;59604;52.138;5.446;2022-08-01T01:33:27;101810.38;;;18.83;86.72
71768;BME280;59604;52.138;5.446;2022-08-01T01:36:00;101810.13;;;18.85;86.85
71768;BME280;59604;52.138;5.446;2022-08-01T01:38:31;101815.03;;;18.88;86.45
71768;BME280;59604;52.138;5.446;2022-08-01T01:40:58;101803.56;;;18.88;86.59
71768;BME280;59604;52.138;5.446;2022-08-01T01:43:27;101803.97;;;18.85;86.89
71768;BME280;59604;52.138;5.446;2022-08-01T01:46:00;101809.56;;;18.83;87.13
71768;BME280;59604;52.138;5.446;2022-08-01T01:48:28;101805.03;;;18.83;87.33
71768;BME280;59604;52.138;5.446;2022-08-01T01:50:56;101813.84;;;18.84;87.23
71768;BME280;59604;52.138;5.446;2022-08-01T01:53:24;101812.81;;;18.85;87.22
71768;BME280;59604;52.138;5.446;2022-08-01T01:55:56;101810.38;;;18.83;87.37
71768;BME280;59604;52.138;5.446;2022-08-01T01:58:25;101812.81;;;18.85;86.66
71768;BME280;59604;52.138;5.446;2022-08-01T02:00:55;101820.00;;;18.85;87.41
71768;BME280;59604;52.138;5.446;2022-08-01T02:03:23;101818.16;;;18.85;87.55
71768;BME280;59604;52.138;5.446;2022-08-01T02:05:54;101817.56;;;18.83;87.35
71768;BME280;59604;52.138;5.446;2022-08-01T02:08:22;101822.91;;;18.83;87.34
71768;BME280;59604;52.138;5.446;2022-08-01T02:10:52;101814.88;;;18.83;87.60
71768;BME280;59604;52.138;5.446;2022-08-01T02:13:47;101808.50;;;18.84;87.82
71768;BME280;59604;52.138;5.446;2022-08-01T02:16:15;101810.97;;;18.86;86.93
71768;BME280;59604;52.138;5.446;2022-08-01T02:18:43;101811.78;;;18.86;85.82
71768;BME280;59604;52.138;5.446;2022-08-01T02:21:12;101817.94;;;18.87;87.20
71768;BME280;59604;52.138;5.446;2022-08-01T02:23:41;101812.81;;;18.85;86.50
71768;BME280;59604;52.138;5.446;2022-08-01T02:26:10;101823.47;;;18.85;87.34
71768;BME280;59604;52.138;5.446;2022-08-01T02:28:49;101814.47;;;18.86;87.20
71768;BME280;59604;52.138;5.446;2022-08-01T02:31:19;101816.31;;;18.86;87.50
71768;BME280;59604;52.138;5.446;2022-08-01T02:33:52;101823.47;;;18.85;87.12
71768;BME280;59604;52.138;5.446;2022-08-01T02:36:21;101819.41;;;18.82;87.27
71768;BME280;59604;52.138;5.446;2022-08-01T02:39:01;101813.25;;;18.82;87.27
71768;BME280;59604;52.138;5.446;2022-08-01T02:41:30;101824.16;;;18.80;87.13
71768;BME280;59604;52.138;5.446;2022-08-01T02:43:59;101823.56;;;18.78;87.35
71768;BME280;59604;52.138;5.446;2022-08-01T02:46:33;101834.25;;;18.78;87.31
71768;BME280;59604;52.138;5.446;2022-08-01T02:49:02;101823.19;;;18.75;87.41
71768;BME280;59604;52.138;5.446;2022-08-01T02:51:30;101824.19;;;18.74;87.78
71768;BME280;59604;52.138;5.446;2022-08-01T02:53:59;101825.63;;;18.76;87.61
71768;BME280;59604;52.138;5.446;2022-08-01T02:56:28;101828.50;;;18.75;87.72
71768;BME280;59604;52.138;5.446;2022-08-01T02:59:08;101824.19;;;18.74;87.39
71768;BME280;59604;52.138;5.446;2022-08-01T03:01:36;101830.38;;;18.74;87.83
71768;BME280;59604;52.138;5.446;2022-08-01T03:04:06;101820.13;;;18.71;87.42
71768;BME280;59604;52.138;5.446;2022-08-01T03:06:34;101825.03;;;18.74;87.57
71768;BME280;59604;52.138;5.446;2022-08-01T03:09:03;101825.03;;;18.74;87.89
71768;BME280;59604;52.138;5.446;2022-08-01T03:11:32;101818.03;;;18.73;87.73
71768;BME280;59604;52.138;5.446;2022-08-01T03:14:02;101815.78;;;18.70;87.91
71768;BME280;59604;52.138;5.446;2022-08-01T03:16:29;101808.63;;;18.71;88.10
71768;BME280;59604;52.138;5.446;2022-08-01T03:18:58;101807.75;;;18.70;88.21
71768;BME280;59604;52.138;5.446;2022-08-01T03:21:27;101818.66;;;18.69;88.35
71768;BME280;59604;52.138;5.446;2022-08-01T03:23:55;101820.53;;;18.68;88.42
71768;BME280;59604;52.138;5.446;2022-08-01T03:26:26;101817.25;;;18.66;87.79
71768;BME280;59604;52.138;5.446;2022-08-01T03:28:56;101825.72;;;18.63;88.05
71768;BME280;59604;52.138;5.446;2022-08-01T03:31:23;101822.00;;;18.64;87.81
71768;BME280;59604;52.138;5.446;2022-08-01T03:33:51;101823.84;;;18.64;88.28
71768;BME280;59604;52.138;5.446;2022-08-01T03:36:21;101826.94;;;18.61;88.44
71768;BME280;59604;52.138;5.446;2022-08-01T03:38:52;101829.81;;;18.59;88.66
71768;BME280;59604;52.138;5.446;2022-08-01T03:41:24;101826.19;;;18.53;88.71
71768;BME280;59604;52.138;5.446;2022-08-01T03:43:57;101826.38;;;18.52;88.59
71768;BME280;59604;52.138;5.446;2022-08-01T03:46:42;101833.38;;;18.53;88.71
71768;BME280;59604;52.138;5.446;2022-08-01T03:49:21;101827.22;;;18.52;88.27
71768;BME280;59604;52.138;5.446;2022-08-01T03:51:49;101824.75;;;18.51;87.85
71768;BME280;59604;52.138;5.446;2022-08-01T03:54:21;101829.28;;;18.50;88.23
71768;BME280;59604;52.138;5.446;2022-08-01T03:56:49;101829.50;;;18.49;87.88
71768;BME280;59604;52.138;5.446;2022-08-01T03:59:18;101829.50;;;18.49;88.09
71768;BME280;59604;52.138;5.446;2022-08-01T04:01:47;101832.38;;;18.47;87.90
71768;BME280;59604;52.138;5.446;2022-08-01T04:04:14;101840.22;;;18.42;87.70
71768;BME280;59604;52.138;5.446;2022-08-01T04:06:41;101841.44;;;18.40;88.08
71768;BME280;59604;52.138;5.446;2022-08-01T04:09:08;101839.81;;;18.39;87.82
71768;BME280;59604;52.138;5.446;2022-08-01T04:11:39;101834.50;;;18.39;88.06
71768;BME280;59604;52.138;5.446;2022-08-01T04:14:07;101834.69;;;18.37;87.32
71768;BME280;59604;52.138;5.446;2022-08-01T04:16:34;101842.69;;;18.37;88.07
71768;BME280;59604;52.138;5.446;2022-08-01T04:19:01;101837.59;;;18.35;87.16
71768;BME280;59604;52.138;5.446;2022-08-01T04:21:31;101843.53;;;18.38;87.58
71768;BME280;59604;52.138;5.446;2022-08-01T04:24:01;101844.34;;;18.38;88.11
71768;BME280;59604;52.138;5.446;2022-08-01T04:26:31;101850.91;;;18.35;88.38
71768;BME280;59604;52.138;5.446;2022-08-01T04:29:00;101853.59;;;18.35;88.67
71768;BME280;59604;52.138;5.446;2022-08-01T04:31:30;101850.50;;;18.39;88.27
71768;BME280;59604;52.138;5.446;2022-08-01T04:33:59;101859.94;;;18.41;88.32
71768;BME280;59604;52.138;5.446;2022-08-01T04:36:28;101861.97;;;18.39;88.65
71768;BME280;59604;52.138;5.446;2022-08-01T04:38:59;101857.69;;;18.38;88.73
71768;BME280;59604;52.138;5.446;2022-08-01T04:41:27;101860.56;;;18.37;88.68
71768;BME280;59604;52.138;5.446;2022-08-01T04:43:57;101862.22;;;18.38;87.78
71768;BME280;59604;52.138;5.446;2022-08-01T04:46:27;101866.06;;;18.42;87.99
71768;BME280;59604;52.138;5.446;2022-08-01T04:48:55;101868.53;;;18.43;87.87
71768;BME280;59604;52.138;5.446;2022-08-01T04:51:22;101866.47;;;18.45;87.83
71768;BME280;59604;52.138;5.446;2022-08-01T04:53:49;101872.19;;;18.49;87.92
71768;BME280;59604;52.138;5.446;2022-08-01T04:56:18;101873.19;;;18.48;87.70
71768;BME280;59604;52.138;5.446;2022-08-01T04:58:45;101876.09;;;18.46;87.86
71768;BME280;59604;52.138;5.446;2022-08-01T05:01:12;101877.91;;;18.52;87.95
71768;BME280;59604;52.138;5.446;2022-08-01T05:03:38;101882.00;;;18.55;87.40
71768;BME280;59604;52.138;5.446;2022-08-01T05:06:05;101883.84;;;18.54;87.84
71768;BME280;59604;52.138;5.446;2022-08-01T05:08:32;101891.03;;;18.54;87.11
71768;BME280;59604;52.138;5.446;2022-08-01T05:10:58;101890.66;;;18.50;87.53
71768;BME280;59604;52.138;5.446;2022-08-01T05:13:25;101888.63;;;18.46;87.37
71768;BME280;59604;52.138;5.446;2022-08-01T05:15:52;101893.56;;;18.42;86.98
71768;BME280;59604;52.138;5.446;2022-08-01T05:18:18;101895.03;;;18.38;87.30
71768;BME280;59604;52.138;5.446;2022-08-01T05:20:53;101898.09;;;18.42;87.68
71768;BME280;59604;52.138;5.446;2022-08-01T05:23:20;101900.53;;;18.43;86.78
71768;BME280;59604;52.138;5.446;2022-08-01T05:26:06;101893.16;;;18.45;86.73
71768;BME280;59604;52.138;5.446;2022-08-01T05:28:34;101899.06;;;18.47;86.97
71768;BME280;59604;52.138;5.446;2022-08-01T05:31:02;101898.25;;;18.47;86.78
71768;BME280;59604;52.138;5.446;2022-08-01T05:33:29;101901.53;;;18.49;86.64
71768;BME280;59604;52.138;5.446;2022-08-01T05:35:55;101903.38;;;18.48;86.90
71768;BME280;59604;52.138;5.446;2022-08-01T05:38:22;101895.75;;;18.52;86.65
71768;BME280;59604;52.138;5.446;2022-08-01T05:40:48;101904.75;;;18.57;86.36
71768;BME280;59604;52.138;5.446;2022-08-01T05:43:15;101900.84;;;18.60;86.82
71768;BME280;59604;52.138;5.446;2022-08-01T05:45:42;101903.94;;;18.57;86.47
71768;BME280;59604;52.138;5.446;2022-08-01T05:48:08;101907.47;;;18.51;86.41
71768;BME280;59604;52.138;5.446;2022-08-01T05:50:35;101907.50;;;18.44;86.76
71768;BME280;59604;52.138;5.446;2022-08-01T05:53:01;101908.69;;;18.48;86.92
71768;BME280;59604;52.138;5.446;2022-08-01T05:55:28;101913.03;;;18.49;86.80
71768;BME280;59604;52.138;5.446;2022-08-01T05:57:54;101901.75;;;18.47;85.96
71768;BME280;59604;52.138;5.446;2022-08-01T06:00:21;101900.50;;;18.50;85.23
71768;BME280;59604;52.138;5.446;2022-08-01T06:02:48;101901.47;;;18.55;86.19
71768;BME280;59604;52.138;5.446;2022-08-01T06:05:15;101903.28;;;18.62;86.44
71768;BME280;59604;52.138;5.446;2022-08-01T06:07:42;101908.19;;;18.71;86.37
71768;BME280;59604;52.138;5.446;2022-08-01T06:10:09;101914.13;;;18.73;86.32
71768;BME280;59604;52.138;5.446;2022-08-01T06:12:36;101922.53;;;18.70;85.97
71768;BME280;59604;52.138;5.446;2022-08-01T06:15:05;101910.22;;;18.69;85.89
71768;BME280;59604;52.138;5.446;2022-08-01T06:17:32;101920.47;;;18.79;87.29
71768;BME280;59604;52.138;5.446;2022-08-01T06:19:58;101928.59;;;18.91;86.48
71768;BME280;59604;52.138;5.446;2022-08-01T06:22:26;101919.34;;;18.93;85.30
71768;BME280;59604;52.138;5.446;2022-08-01T06:24:53;101913.22;;;18.86;86.39
71768;BME280;59604;52.138;5.446;2022-08-01T06:27:19;101913.38;;;18.91;86.46
71768;BME280;59604;52.138;5.446;2022-08-01T06:29:47;101916.88;;;18.92;85.82
71768;BME280;59604;52.138;5.446;2022-08-01T06:32:20;101922.06;;;18.87;85.80
71768;BME280;59604;52.138;5.446;2022-08-01T06:34:52;101921.25;;;18.86;86.17
71768;BME280;59604;52.138;5.446;2022-08-01T06:37:19;101923.28;;;18.84;86.25
71768;BME280;59604;52.138;5.446;2022-08-01T06:39:46;101930.53;;;18.77;86.33
71768;BME280;59604;52.138;5.446;2022-08-01T06:42:12;101922.13;;;18.73;86.31
71768;BME280;59604;52.138;5.446;2022-08-01T06:44:41;101932.63;;;18.68;87.17
71768;BME280;59604;52.138;5.446;2022-08-01T06:47:07;101929.13;;;18.68;87.22
71768;BME280;59604;52.138;5.446;2022-08-01T06:49:34;101929.78;;;18.63;87.28
71768;BME280;59604;52.138;5.446;2022-08-01T06:52:01;101936.13;;;18.62;87.62
71768;BME280;59604;52.138;5.446;2022-08-01T06:54:27;101945.59;;;18.58;87.73
71768;BME280;59604;52.138;5.446;2022-08-01T06:56:54;101947.03;;;18.61;87.98
71768;BME280;59604;52.138;5.446;2022-08-01T06:59:21;101939.84;;;18.61;88.33
71768;BME280;59604;52.138;5.446;2022-08-01T07:01:48;101942.28;;;18.63;87.79
71768;BME280;59604;52.138;5.446;2022-08-01T07:04:15;101944.78;;;18.57;87.68
71768;BME280;59604;52.138;5.446;2022-08-01T07:06:42;101945.44;;;18.53;88.75
71768;BME280;59604;52.138;5.446;2022-08-01T07:09:08;101950.16;;;18.51;88.92
71768;BME280;59604;52.138;5.446;2022-08-01T07:11:39;101947.72;;;18.49;88.68
71768;BME280;59604;52.138;5.446;2022-08-01T07:14:07;101949.56;;;18.49;89.05
71768;BME280;59604;52.138;5.446;2022-08-01T07:16:34;101953.88;;;18.50;89.55
71768;BME280;59604;52.138;5.446;2022-08-01T07:19:00;101949.72;;;18.54;89.31
71768;BME280;59604;52.138;5.446;2022-08-01T07:21:29;101956.91;;;18.60;89.04
71768;BME280;59604;52.138;5.446;2022-08-01T07:24:11;101952.75;;;18.64;89.18
71768;BME280;59604;52.138;5.446;2022-08-01T07:26:45;101953.56;;;18.65;89.14
71768;BME280;59604;52.138;5.446;2022-08-01T07:29:21;101956.47;;;18.63;88.98
71768;BME280;59604;52.138;5.446;2022-08-01T07:31:48;101958.31;;;18.63;89.07
71768;BME280;59604;52.138;5.446;2022-08-01T07:34:14;101961.41;;;18.59;89.24
71768;BME280;59604;52.138;5.446;2022-08-01T07:36:41;101964.28;;;18.58;88.90
71768;BME280;59604;52.138;5.446;2022-08-01T07:39:07;101966.78;;;18.53;89.13
71768;BME280;59604;52.138;5.446;2022-08-01T07:41:34;101970.06;;;18.48;89.03
71768;BME280;59604;52.138;5.446;2022-08-01T07:44:20;101966.81;;;18.46;89.08
71768;BME280;59604;52.138;5.446;2022-08-01T07:46:47;101976.03;;;18.44;88.90
71768;BME280;59604;52.138;5.446;2022-08-01T07:49:13;101977.25;;;18.48;88.95
71768;BME280;59604;52.138;5.446;2022-08-01T07:51:40;101978.69;;;18.50;88.74
71768;BME280;59604;52.138;5.446;2022-08-01T07:54:27;101983.34;;;18.62;88.00
71768;BME280;59604;52.138;5.446;2022-08-01T07:56:59;101993.59;;;18.65;88.04
71768;BME280;59604;52.138;5.446;2022-08-01T07:59:26;101985.78;;;18.70;88.21
71768;BME280;59604;52.138;5.446;2022-08-01T08:01:52;101994.19;;;18.67;87.75
71768;BME280;59604;52.138;5.446;2022-08-01T08:04:19;101995.25;;;18.66;87.70
71768;BME280;59604;52.138;5.446;2022-08-01T08:06:45;101987.25;;;18.72;88.33
71768;BME280;59604;52.138;5.446;2022-08-01T08:09:14;101995.81;;;18.81;87.31
71768;BME280;59604;52.138;5.446;2022-08-01T08:11:43;102006.69;;;18.86;85.16
71768;BME280;59604;52.138;5.446;2022-08-01T08:14:14;102003.13;;;18.92;85.58
71768;BME280;59604;52.138;5.446;2022-08-01T08:16:42;102007.38;;;19.00;84.67
71768;BME280;59604;52.138;5.446;2022-08-01T08:19:08;102001.59;;;19.10;84.93
71768;BME280;59604;52.138;5.446;2022-08-01T08:21:38;102015.63;;;19.30;83.84
71768;BME280;59604;52.138;5.446;2022-08-01T08:24:06;102004.41;;;19.46;84.60
71768;BME280;59604;52.138;5.446;2022-08-01T08:26:55;102014.13;;;19.66;81.59
71768;BME280;59604;52.138;5.446;2022-08-01T08:29:22;102016.16;;;19.70;81.51
71768;BME280;59604;52.138;5.446;2022-08-01T08:31:49;102017.81;;;19.90;82.42
71768;BME280;59604;52.138;5.446;2022-08-01T08:34:19;102018.50;;;20.03;81.90
71768;BME280;59604;52.138;5.446;2022-08-01T08:36:48;102017.84;;;20.08;79.26
71768;BME280;59604;52.138;5.446;2022-08-01T08:39:16;102020.13;;;20.05;78.91
71768;BME280;59604;52.138;5.446;2022-08-01T08:41:45;102021.38;;;20.02;79.47
71768;BME280;59604;52.138;5.446;2022-08-01T08:44:15;102021.94;;;20.11;80.40
71768;BME280;59604;52.138;5.446;2022-08-01T08:46:45;102027.88;;;20.13;78.86
71768;BME280;59604;52.138;5.446;2022-08-01T08:49:16;102025.88;;;20.08;79.09
71768;BME280;59604;52.138;5.446;2022-08-01T08:51:48;102032.84;;;20.09;80.21
71768;BME280;59604;52.138;5.446;2022-08-01T08:54:17;102030.34;;;20.14;78.12
71768;BME280;59604;52.138;5.446;2022-08-01T08:56:48;102032.91;;;20.02;77.61
71768;BME280;59604;52.138;5.446;2022-08-01T08:59:16;102032.53;;;19.99;78.33
71768;BME280;59604;52.138;5.446;2022-08-01T09:01:43;102036.09;;;19.93;77.37
71768;BME280;59604;52.138;5.446;2022-08-01T09:04:11;102034.31;;;20.05;78.63
71768;BME280;59604;52.138;5.446;2022-08-01T09:06:38;102041.47;;;20.11;78.73
71768;BME280;59604;52.138;5.446;2022-08-01T09:09:05;102040.72;;;20.22;77.32
71768;BME280;59604;52.138;5.446;2022-08-01T09:11:34;102044.16;;;20.30;76.45
71768;BME280;59604;52.138;5.446;2022-08-01T09:14:01;102050.63;;;20.40;76.63
71768;BME280;59604;52.138;5.446;2022-08-01T09:16:27;102042.00;;;20.57;75.23
71768;BME280;59604;52.138;5.446;2022-08-01T09:19:06;102042.75;;;20.64;74.01
71768;BME280;59604;52.138;5.446;2022-08-01T09:21:57;102057.84;;;20.58;69.36
71768;BME280;59604;52.138;5.446;2022-08-01T09:24:26;102055.53;;;20.62;70.59
71768;BME280;59604;52.138;5.446;2022-08-01T09:26:57;102056.72;;;20.84;72.83
71768;BME280;59604;52.138;5.446;2022-08-01T09:29:27;102055.69;;;20.97;71.48
71768;BME280;59604;52.138;5.446;2022-08-01T09:32:05;102052.63;;;21.23;72.80
71768;BME280;59604;52.138;5.446;2022-08-01T09:34:32;102059.25;;;21.39;69.64
71768;BME280;59604;52.138;5.446;2022-08-01T09:37:01;102059.47;;;21.50;69.24
71768;BME280;59604;52.138;5.446;2022-08-01T09:39:33;102065.44;;;21.63;69.93
71768;BME280;59604;52.138;5.446;2022-08-01T09:42:18;102058.91;;;21.59;70.73
71768;BME280;59604;52.138;5.446;2022-08-01T09:44:45;102067.75;;;21.48;69.54
71768;BME280;59604;52.138;5.446;2022-08-01T09:47:21;102068.72;;;21.23;67.53
71768;BME280;59604;52.138;5.446;2022-08-01T09:49:57;102066.63;;;21.26;69.15
71768;BME280;59604;52.138;5.446;2022-08-01T09:52:26;102068.66;;;21.42;70.87
71768;BME280;59604;52.138;5.446;2022-08-01T09:55:03;102074.31;;;21.64;69.23
71768;BME280;59604;52.138;5.446;2022-08-01T09:57:31;102075.00;;;21.59;66.21
71768;BME280;59604;52.138;5.446;2022-08-01T10:00:00;102076.25;;;21.45;67.88
71768;BME280;59604;52.138;5.446;2022-08-01T10:02:38;102076.50;;;21.55;67.41
71768;BME280;59604;52.138;5.446;2022-08-01T10:05:10;102072.47;;;21.76;67.10
71768;BME280;59604;52.138;5.446;2022-08-01T10:08:03;102070.00;;;22.10;64.60
71768;BME280;59604;52.138;5.446;2022-08-01T10:10:33;102084.25;;;22.10;65.50
71768;BME280;59604;52.138;5.446;2022-08-01T10:13:03;102077.13;;;22.16;65.93
71768;BME280;59604;52.138;5.446;2022-08-01T10:15:30;102073.50;;;22.34;63.11
71768;BME280;59604;52.138;5.446;2022-08-01T10:18:06;102076.22;;;22.22;61.93
71768;BME280;59604;52.138;5.446;2022-08-01T10:20:46;102073.88;;;22.14;61.74
71768;BME280;59604;52.138;5.446;2022-08-01T10:23:13;102074.56;;;22.73;62.01
71768;BME280;59604;52.138;5.446;2022-08-01T10:25:42;102077.56;;;23.17;61.34
71768;BME280;59604;52.138;5.446;2022-08-01T10:28:17;102076.28;;;23.36;59.88
71768;BME280;59604;52.138;5.446;2022-08-01T10:30:49;102077.72;;;23.73;57.91
71768;BME280;59604;52.138;5.446;2022-08-01T10:33:17;102073.63;;;23.70;57.42
71768;BME280;59604;52.138;5.446;2022-08-01T10:36:04;102078.91;;;23.48;54.91
71768;BME280;59604;52.138;5.446;2022-08-01T10:38:34;102082.06;;;23.45;55.46
71768;BME280;59604;52.138;5.446;2022-08-01T10:41:05;102077.75;;;23.44;55.05
71768;BME280;59604;52.138;5.446;2022-08-01T10:43:34;102082.19;;;23.67;57.22
71768;BME280;59604;52.138;5.446;2022-08-01T10:46:04;102070.63;;;23.83;56.61
71768;BME280;59604;52.138;5.446;2022-08-01T10:51:36;102075.34;;;23.76;54.19
71768;BME280;59604;52.138;5.446;2022-08-01T10:54:18;102075.25;;;23.71;54.43
71768;BME280;59604;52.138;5.446;2022-08-01T10:56:51;102074.63;;;23.81;54.65
71768;BME280;59604;52.138;5.446;2022-08-01T10:59:26;102074.28;;;23.60;56.41
71768;BME280;59604;52.138;5.446;2022-08-01T11:02:39;102084.75;;;23.45;55.86
71768;BME280;59604;52.138;5.446;2022-08-01T11:05:20;102084.63;;;23.35;55.78
71768;BME280;59604;52.138;5.446;2022-08-01T11:07:52;102075.06;;;23.27;56.97
71768;BME280;59604;52.138;5.446;2022-08-01T11:10:25;102084.56;;;23.18;56.36
71768;BME280;59604;52.138;5.446;2022-08-01T11:12:55;102080.72;;;22.85;54.70
71768;BME280;59604;52.138;5.446;2022-08-01T11:15:22;102081.34;;;22.76;58.04
71768;BME280;59604;52.138;5.446;2022-08-01T11:17:56;102082.03;;;22.83;56.92
71768;BME280;59604;52.138;5.446;2022-08-01T11:20:28;102084.94;;;22.81;57.06
71768;BME280;59604;52.138;5.446;2022-08-01T11:28:27;102084.53;;;23.47;54.09
71768;BME280;59604;52.138;5.446;2022-08-01T11:41:17;102104.84;;;24.05;52.36
71768;BME280;59604;52.138;5.446;2022-08-01T11:44:23;102104.78;;;24.39;53.25
71768;BME280;59604;52.138;5.446;2022-08-01T11:54:46;102105.19;;;24.69;46.02
71768;BME280;59604;52.138;5.446;2022-08-01T11:57:17;102101.22;;;24.55;47.94
71768;BME280;59604;52.138;5.446;2022-08-01T11:59:56;102099.88;;;24.35;47.94
71768;BME280;59604;52.138;5.446;2022-08-01T12:02:33;102105.63;;;24.39;46.28
71768;BME280;59604;52.138;5.446;2022-08-01T12:05:07;102109.50;;;24.70;46.83
71768;BME280;59604;52.138;5.446;2022-08-01T12:07:38;102110.06;;;24.72;47.38
71768;BME280;59604;52.138;5.446;2022-08-01T12:10:13;102117.97;;;24.79;45.75
71768;BME280;59604;52.138;5.446;2022-08-01T12:12:58;102114.31;;;24.90;47.70
71768;BME280;59604;52.138;5.446;2022-08-01T12:15:32;102118.72;;;24.74;46.50
71768;BME280;59604;52.138;5.446;2022-08-01T12:18:01;102123.53;;;24.72;48.08
71768;BME280;59604;52.138;5.446;2022-08-01T12:20:30;102115.13;;;25.13;41.91
71768;BME280;59604;52.138;5.446;2022-08-01T12:23:00;102123.00;;;25.19;43.82
71768;BME280;59604;52.138;5.446;2022-08-01T12:25:28;102112.25;;;24.97;43.24
71768;BME280;59604;52.138;5.446;2022-08-01T12:27:59;102116.25;;;24.73;46.51
71768;BME280;59604;52.138;5.446;2022-08-01T12:30:26;102117.66;;;24.53;47.46
71768;BME280;59604;52.138;5.446;2022-08-01T12:32:53;102123.16;;;24.42;47.48
71768;BME280;59604;52.138;5.446;2022-08-01T12:35:22;102115.00;;;24.58;44.95
71768;BME280;59604;52.138;5.446;2022-08-01T12:37:52;102112.44;;;24.91;42.83
71768;BME280;59604;52.138;5.446;2022-08-01T12:40:22;102113.91;;;25.03;42.98
71768;BME280;59604;52.138;5.446;2022-08-01T12:42:53;102112.47;;;24.96;43.19
71768;BME280;59604;52.138;5.446;2022-08-01T12:45:29;102118.91;;;25.12;41.31
71768;BME280;59604;52.138;5.446;2022-08-01T12:47:57;102111.50;;;25.07;42.72
71768;BME280;59604;52.138;5.446;2022-08-01T12:50:28;102117.31;;;25.16;42.25
71768;BME280;59604;52.138;5.446;2022-08-01T12:52:56;102102.84;;;25.27;39.51
71768;BME280;59604;52.138;5.446;2022-08-01T12:55:26;102104.47;;;25.28;39.23
71768;BME280;59604;52.138;5.446;2022-08-01T12:58:08;102106.19;;;25.39;40.30
71768;BME280;59604;52.138;5.446;2022-08-01T13:00:43;102108.28;;;25.59;41.73
71768;BME280;59604;52.138;5.446;2022-08-01T13:03:11;102117.75;;;25.35;41.37
71768;BME280;59604;52.138;5.446;2022-08-01T13:08:14;102107.72;;;24.81;41.71
71768;BME280;59604;52.138;5.446;2022-08-01T13:10:41;102109.50;;;24.70;42.21
71768;BME280;59604;52.138;5.446;2022-08-01T13:13:09;102110.03;;;24.94;39.79
71768;BME280;59604;52.138;5.446;2022-08-01T13:15:47;102115.06;;;25.08;42.60
71768;BME280;59604;52.138;5.446;2022-08-01T13:18:29;102106.69;;;25.36;39.65
71768;BME280;59604;52.138;5.446;2022-08-01T13:21:15;102112.09;;;25.36;40.71
71768;BME280;59604;52.138;5.446;2022-08-01T13:29:10;102101.53;;;25.62;39.78
71768;BME280;59604;52.138;5.446;2022-08-01T13:31:38;102102.13;;;25.69;42.24
71768;BME280;59604;52.138;5.446;2022-08-01T13:34:05;102113.63;;;25.86;36.56
71768;BME280;59604;52.138;5.446;2022-08-01T13:36:33;102110.22;;;25.69;37.53
71768;BME280;59604;52.138;5.446;2022-08-01T13:39:00;102098.78;;;25.57;37.73
71768;BME280;59604;52.138;5.446;2022-08-01T13:41:46;102098.72;;;25.51;38.03
71768;BME280;59604;52.138;5.446;2022-08-01T13:44:12;102104.44;;;25.55;39.05
71768;BME280;59604;52.138;5.446;2022-08-01T13:46:40;102088.34;;;25.33;36.92
71768;BME280;59604;52.138;5.446;2022-08-01T13:49:16;102093.16;;;25.26;36.83
71768;BME280;59604;52.138;5.446;2022-08-01T13:51:44;102091.25;;;25.26;38.41
71768;BME280;59604;52.138;5.446;2022-08-01T13:54:12;102090.59;;;25.41;37.23